Mount Carmel, TN (37645)

4:17 AM EDT on August 26, 2016 (GMT -0400)
BlandDrive | | Change Station
Active Advisory: Special Statement

Elev 1473 ft 36.57 °N, 82.68 °W | Updated 14 minutes ago

Partly Cloudy
Partly Cloudy
68.5 °F
Feels Like 68.5 °F
N
0.0
Wind Variable Wind from North

Today
High -- | Low -- °F
--% Chance of Precip.
Yesterday
High -- | Low -- °F
Precip. -- in
Pressure 30.09 in
Visibility 3.0 miles
Clouds Few 20000 ft
Dew Point 67 °F
Humidity 95%
Rainfall 0.00 in
Snow Depth Not available.
6:57 AM 8:06 PM
Last Quarter, 37% visible
METAR KTRI 260753Z 00000KT 3SM BR FEW200 20/19 A3018 RMK AO2 SLP190 T02000194
Pressure 30.09 in
Visibility 3.0 miles
Clouds Few 20000 ft
Dew Point 67 °F
Humidity 95%
Rainfall 0.00 in
Snow Depth Not available.
6:57 AM 8:06 PM
Last Quarter, 37% visible
METAR KTRI 260753Z 00000KT 3SM BR FEW200 20/19 A3018 RMK AO2 SLP190 T02000194

10-Day Weather Forecast

Almanac

Astronomy

Aug. 26, 2016 Rise Set
Actual Time
Civil Twilight
Nautical Twilight
Astronomical Twilight
Moon
Length of Visible Light
Length of Day
Tomorrow will be .
, % of the Moon is Illuminated

Today's Extremes

State Highs State Lows

Community

WunderPhotos

Upload Photos

1,935,062 photos uploaded!

WunderBlog® & News

Nearby

Air Quality

  Air Quality AQ Index Pollutant
Not available.

Snow Depth

Station Depth Elevation

Earthquake Activity

City Distance Mag. Time & Date
Minimum magnitude displayed is 2.5.

Coastal Water Temperatures

Place Temperature

Stations

Nearby Weather Stations

Station Location Temp. Windchill Dew Point Humidity Wind Precip. Elev Updated Type
                   

Watches & Warnings

Special Statement
Issued: 3:32 AM EDT Aug. 26, 2016 – National Weather Service


... Patchy dense fog this morning...

Fog will reduce visibilities to a quarter mile or less in some
spots this morning. The patchy coverage of fog will mean that the
visibility may drop suddenly... so motorists should use caution and
use headlights when passing through dense fog.